createdAt,value
2023-05-21T00:01:08.593Z,13.17
2023-05-21T00:03:36.261Z,13.23
2023-05-21T00:06:03.896Z,13.17
2023-05-21T00:08:31.221Z,13.24
2023-05-21T00:10:58.053Z,13.20
2023-05-21T00:13:24.798Z,13.13
2023-05-21T00:15:51.663Z,13.09
2023-05-21T00:18:18.363Z,13.04
2023-05-21T00:20:45.684Z,13.05
2023-05-21T00:23:12.568Z,13.04
2023-05-21T00:25:39.331Z,13.08
2023-05-21T00:28:05.947Z,13.07
2023-05-21T00:30:32.756Z,13.10
2023-05-21T00:33:02.456Z,13.13
2023-05-21T00:35:29.636Z,13.31
2023-05-21T00:37:56.510Z,13.27
2023-05-21T00:40:23.265Z,13.27
2023-05-21T00:42:49.967Z,13.29
2023-05-21T00:45:16.840Z,13.25
2023-05-21T00:47:44.691Z,13.19
2023-05-21T00:50:12.008Z,13.20
2023-05-21T00:52:42.224Z,13.16
2023-05-21T00:55:10.648Z,13.09
2023-05-21T00:57:37.537Z,13.04
2023-05-21T01:00:08.788Z,13.08
2023-05-21T01:02:37.229Z,13.13
2023-05-21T01:05:08.449Z,13.06
2023-05-21T01:07:39.072Z,13.07
2023-05-21T01:10:08.233Z,13.12
2023-05-21T01:12:35.979Z,13.07
2023-05-21T01:15:04.173Z,13.00
2023-05-21T01:17:31.896Z,13.01
2023-05-21T01:19:59.422Z,13.15
2023-05-21T01:22:28.533Z,13.07
2023-05-21T01:24:55.649Z,13.04
2023-05-21T01:27:22.906Z,13.05
2023-05-21T01:29:50.388Z,13.08
2023-05-21T01:32:29.864Z,13.11
2023-05-21T01:35:04.507Z,13.10
2023-05-21T01:37:57.495Z,13.10
2023-05-21T01:40:38.415Z,13.05
2023-05-21T01:43:07.189Z,13.15
2023-05-21T01:45:36.657Z,13.09
2023-05-21T01:48:05.996Z,13.09
2023-05-21T01:50:34.421Z,13.10
2023-05-21T01:53:01.296Z,13.14
2023-05-21T01:55:30.775Z,13.10
2023-05-21T01:58:01.365Z,13.03
2023-05-21T02:00:29.623Z,13.06
2023-05-21T02:02:56.924Z,13.05
2023-05-21T02:05:23.861Z,13.09
2023-05-21T02:07:52.104Z,13.11
2023-05-21T02:10:19.355Z,13.04
2023-05-21T02:12:46.489Z,13.03
2023-05-21T02:15:14.447Z,13.02
2023-05-21T02:17:42.465Z,13.04
2023-05-21T02:20:12.254Z,12.97
2023-05-21T02:22:41.437Z,12.97
2023-05-21T02:25:09.502Z,12.97
2023-05-21T02:27:37.602Z,13.02
2023-05-21T02:30:06.885Z,13.04
2023-05-21T02:32:34.864Z,13.00
2023-05-21T02:35:03.804Z,13.02
2023-05-21T02:37:33.949Z,13.02
2023-05-21T02:40:02.159Z,13.10
2023-05-21T02:42:29.928Z,13.11
2023-05-21T02:44:56.761Z,13.11
2023-05-21T02:47:24.292Z,13.09
2023-05-21T02:49:53.056Z,13.01
2023-05-21T02:52:22.584Z,13.04
2023-05-21T02:54:49.432Z,13.01
2023-05-21T02:57:18.268Z,12.86
2023-05-21T02:59:45.959Z,12.91
2023-05-21T03:02:12.944Z,12.91
2023-05-21T03:04:46.348Z,12.90
2023-05-21T03:07:14.669Z,12.89
2023-05-21T03:09:42.342Z,12.92
2023-05-21T03:12:09.763Z,12.97
2023-05-21T03:14:36.606Z,12.92
2023-05-21T03:17:05.969Z,12.96
2023-05-21T03:19:35.863Z,12.90
2023-05-21T03:22:04.579Z,12.90
2023-05-21T03:24:35.259Z,12.85
2023-05-21T03:27:02.387Z,12.96
2023-05-21T03:29:29.221Z,12.86
2023-05-21T03:31:57.643Z,12.96
2023-05-21T03:34:24.567Z,12.99
2023-05-21T03:36:52.252Z,12.94
2023-05-21T03:39:20.323Z,12.98
2023-05-21T03:41:47.118Z,13.02
2023-05-21T03:44:22.112Z,12.99
2023-05-21T03:46:56.315Z,12.99
2023-05-21T03:49:28.779Z,12.98
2023-05-21T03:51:56.827Z,12.95
2023-05-21T03:54:24.377Z,12.91
2023-05-21T03:56:54.171Z,13.00
2023-05-21T03:59:22.642Z,12.95
2023-05-21T04:01:49.421Z,12.96
2023-05-21T04:04:17.675Z,12.92
2023-05-21T04:06:44.541Z,12.89
2023-05-21T04:09:12.980Z,12.86
2023-05-21T04:11:39.734Z,12.80
2023-05-21T04:14:06.550Z,12.86
2023-05-21T04:16:34.805Z,12.87
2023-05-21T04:19:01.907Z,12.87
2023-05-21T04:21:30.094Z,12.87
2023-05-21T04:23:57.588Z,12.82
2023-05-21T04:26:44.705Z,12.91
2023-05-21T04:29:11.677Z,12.85
2023-05-21T04:31:38.467Z,12.80
2023-05-21T04:34:05.452Z,12.83
2023-05-21T04:36:33.773Z,12.85
2023-05-21T04:39:01.190Z,12.86
2023-05-21T04:41:28.621Z,12.89
2023-05-21T04:43:55.539Z,12.84
2023-05-21T04:46:26.866Z,12.92
2023-05-21T04:48:55.386Z,12.86
2023-05-21T04:51:24.726Z,12.87
2023-05-21T04:53:52.073Z,12.85
2023-05-21T04:56:19.006Z,12.84
2023-05-21T04:58:47.975Z,12.91
2023-05-21T05:01:15.929Z,13.01
2023-05-21T05:03:42.902Z,13.03
2023-05-21T05:06:09.599Z,13.12
2023-05-21T05:08:36.410Z,13.06
2023-05-21T05:11:04.207Z,13.02
2023-05-21T05:13:31.393Z,13.03
2023-05-21T05:15:58.038Z,13.08
2023-05-21T05:18:26.489Z,13.10
2023-05-21T05:20:53.214Z,13.09
2023-05-21T05:23:20.000Z,13.04
2023-05-21T05:25:46.929Z,13.10
2023-05-21T05:28:13.795Z,13.04
2023-05-21T05:30:40.736Z,13.05
2023-05-21T05:33:26.476Z,13.03
2023-05-21T05:35:53.627Z,13.02
2023-05-21T05:38:21.079Z,13.05
2023-05-21T05:40:47.813Z,13.04
2023-05-21T05:43:14.571Z,13.06
2023-05-21T05:45:41.277Z,13.08
2023-05-21T05:48:13.028Z,13.11
2023-05-21T05:50:39.666Z,13.13
2023-05-21T05:53:07.405Z,13.13
2023-05-21T05:55:34.745Z,13.14
2023-05-21T05:58:01.614Z,13.17
2023-05-21T06:00:28.339Z,13.21
2023-05-21T06:02:55.841Z,13.27
2023-05-21T06:05:22.833Z,13.29
2023-05-21T06:07:50.706Z,13.37
2023-05-21T06:10:20.817Z,13.36
2023-05-21T06:12:47.696Z,13.36
2023-05-21T06:15:19.396Z,13.39
2023-05-21T06:17:46.329Z,13.35
2023-05-21T06:20:13.754Z,13.36
2023-05-21T06:22:40.742Z,13.40
2023-05-21T06:25:11.100Z,13.42
2023-05-21T06:27:38.765Z,13.45
2023-05-21T06:30:10.567Z,13.44
2023-05-21T06:32:37.499Z,13.46
2023-05-21T06:35:04.744Z,13.39
2023-05-21T06:37:31.522Z,13.45
2023-05-21T06:39:58.222Z,13.43
2023-05-21T06:42:24.922Z,13.46
2023-05-21T06:45:24.010Z,13.48
2023-05-21T06:47:54.965Z,13.47
2023-05-21T06:50:21.706Z,13.53
2023-05-21T06:52:48.532Z,13.50
2023-05-21T06:55:15.350Z,13.50
2023-05-21T06:58:14.314Z,13.48
2023-05-21T07:00:41.205Z,13.52
2023-05-21T07:03:08.254Z,13.51
2023-05-21T07:05:36.543Z,13.46
2023-05-21T07:08:04.673Z,13.49
2023-05-21T07:10:31.338Z,13.52
2023-05-21T07:12:59.826Z,13.56
2023-05-21T07:15:27.065Z,13.56
2023-05-21T07:17:58.323Z,13.61
2023-05-21T07:20:25.326Z,13.62
2023-05-21T07:22:55.547Z,13.69
2023-05-21T07:25:22.692Z,13.75
2023-05-21T07:27:49.492Z,13.72
2023-05-21T07:30:16.446Z,13.74
2023-05-21T07:32:43.164Z,13.78
2023-05-21T07:35:10.151Z,13.83
2023-05-21T07:37:36.821Z,13.83
2023-05-21T07:40:04.744Z,13.87
2023-05-21T07:42:31.538Z,13.87
2023-05-21T07:44:58.870Z,13.91
2023-05-21T07:47:27.078Z,13.96
2023-05-21T07:49:54.200Z,14.00
2023-05-21T07:52:21.142Z,14.03
2023-05-21T07:54:47.913Z,14.04
2023-05-21T07:57:15.074Z,14.02
2023-05-21T07:59:56.841Z,14.02
2023-05-21T08:02:24.312Z,14.05
2023-05-21T08:04:55.200Z,14.03
2023-05-21T08:07:22.070Z,14.18
2023-05-21T08:09:49.041Z,14.20
2023-05-21T08:12:16.202Z,14.18
2023-05-21T08:14:43.821Z,14.21
2023-05-21T08:17:12.682Z,14.22
2023-05-21T08:19:39.749Z,14.24
2023-05-21T08:22:07.590Z,14.20
2023-05-21T08:24:36.865Z,14.22
2023-05-21T08:27:03.890Z,14.19
2023-05-21T08:29:33.094Z,14.24
2023-05-21T08:31:59.928Z,14.21
2023-05-21T08:34:26.757Z,14.29
2023-05-21T08:37:06.998Z,14.27
2023-05-21T08:40:09.851Z,14.37
2023-05-21T08:42:47.512Z,14.38
2023-05-21T08:45:23.722Z,14.45
2023-05-21T08:48:00.069Z,14.43
2023-05-21T08:50:31.945Z,14.39
2023-05-21T08:53:07.523Z,14.44
2023-05-21T08:55:43.855Z,14.41
2023-05-21T08:58:11.201Z,14.38
2023-05-21T09:00:38.160Z,14.41
2023-05-21T09:03:11.291Z,14.42
2023-05-21T09:05:41.475Z,14.39
2023-05-21T09:08:18.068Z,14.41
2023-05-21T09:11:14.546Z,14.38
2023-05-21T09:13:49.179Z,14.35
2023-05-21T09:16:23.101Z,14.33
2023-05-21T09:18:50.298Z,14.34
2023-05-21T09:21:28.375Z,14.29
2023-05-21T09:24:14.432Z,14.33
2023-05-21T09:26:45.711Z,14.33
2023-05-21T09:29:13.342Z,14.38
2023-05-21T09:31:44.918Z,14.40
2023-05-21T09:34:14.156Z,14.39
2023-05-21T09:36:44.006Z,14.42
2023-05-21T09:39:16.321Z,14.39
2023-05-21T09:41:43.880Z,14.41
2023-05-21T09:44:10.733Z,14.38
2023-05-21T09:46:40.429Z,14.39
2023-05-21T09:49:21.931Z,14.41
2023-05-21T09:51:48.699Z,14.30
2023-05-21T09:54:15.346Z,14.40
2023-05-21T09:56:42.453Z,14.37
2023-05-21T09:59:09.293Z,14.22
2023-05-21T10:01:37.393Z,14.37
2023-05-21T10:04:08.345Z,14.33
2023-05-21T10:06:43.557Z,14.30
2023-05-21T10:09:11.539Z,14.29
2023-05-21T10:11:40.979Z,14.31
2023-05-21T10:14:13.545Z,14.33
2023-05-21T10:16:40.859Z,14.33
2023-05-21T10:19:11.147Z,14.28
2023-05-21T10:21:39.961Z,14.28
2023-05-21T10:24:10.797Z,14.32
2023-05-21T10:26:38.627Z,14.28
2023-05-21T10:29:05.523Z,14.34
2023-05-21T10:31:33.277Z,14.35
2023-05-21T10:34:00.847Z,14.40
2023-05-21T10:36:31.830Z,14.42
2023-05-21T10:39:00.699Z,14.49
2023-05-21T10:41:32.499Z,14.45
2023-05-21T10:44:05.317Z,14.48
2023-05-21T10:47:10.782Z,14.47
2023-05-21T10:49:59.309Z,14.41
2023-05-21T10:53:03.257Z,14.40
2023-05-21T10:55:29.987Z,14.41
2023-05-21T10:58:26.919Z,14.43
2023-05-21T11:00:56.130Z,14.46
2023-05-21T11:03:23.246Z,14.44
2023-05-21T11:05:55.471Z,14.42
2023-05-21T11:08:35.671Z,14.41
2023-05-21T11:11:03.627Z,14.42
2023-05-21T11:13:49.237Z,14.44
2023-05-21T11:16:17.155Z,14.45
2023-05-21T11:18:46.669Z,14.49
2023-05-21T11:21:17.830Z,14.51
2023-05-21T11:24:05.002Z,14.54
2023-05-21T11:26:50.274Z,14.53
2023-05-21T11:29:17.650Z,14.54
2023-05-21T11:31:49.320Z,14.55
2023-05-21T11:34:28.625Z,14.67
2023-05-21T11:37:17.502Z,14.69
2023-05-21T11:39:45.357Z,14.70
2023-05-21T11:42:12.753Z,14.80
2023-05-21T11:44:43.355Z,14.82
2023-05-21T11:47:12.598Z,14.77
2023-05-21T11:49:39.512Z,14.82
2023-05-21T11:52:07.925Z,14.90
2023-05-21T11:54:40.978Z,14.90
2023-05-21T11:57:08.202Z,15.01
2023-05-21T11:59:35.555Z,15.06
2023-05-21T12:02:03.551Z,15.06
2023-05-21T12:04:37.877Z,15.12
2023-05-21T12:07:08.369Z,15.05
2023-05-21T12:09:43.037Z,15.18
2023-05-21T12:12:11.583Z,15.20
2023-05-21T12:14:38.286Z,15.22
2023-05-21T12:17:06.956Z,15.26
2023-05-21T12:19:35.081Z,15.31
2023-05-21T12:22:06.189Z,15.39
2023-05-21T12:24:34.437Z,15.46
2023-05-21T12:27:02.855Z,15.43
2023-05-21T12:29:33.556Z,15.49
2023-05-21T12:32:01.914Z,15.66
2023-05-21T12:34:48.747Z,15.75
2023-05-21T12:37:25.870Z,15.84
2023-05-21T12:39:54.550Z,16.02
2023-05-21T12:42:35.388Z,16.16
2023-05-21T12:45:08.033Z,16.32
2023-05-21T12:47:35.234Z,16.46
2023-05-21T12:50:09.355Z,16.67
2023-05-21T12:52:36.110Z,16.83
2023-05-21T12:55:02.841Z,17.08
2023-05-21T12:57:38.805Z,17.22
2023-05-21T13:00:07.349Z,17.25
2023-05-21T13:02:42.863Z,17.21
2023-05-21T13:05:17.444Z,17.21
2023-05-21T13:07:46.930Z,17.20
2023-05-21T13:10:16.272Z,17.12
2023-05-21T13:12:44.702Z,17.31
2023-05-21T13:15:12.271Z,17.35
2023-05-21T13:17:39.194Z,17.40
2023-05-21T13:20:16.721Z,17.55
2023-05-21T13:22:46.716Z,17.69
2023-05-21T13:25:21.547Z,17.54
2023-05-21T13:27:49.538Z,17.52
2023-05-21T13:30:16.433Z,17.64
2023-05-21T13:32:43.738Z,17.73
2023-05-21T13:35:11.926Z,17.76
2023-05-21T13:37:42.160Z,17.85
2023-05-21T13:40:16.979Z,18.05
2023-05-21T13:42:45.548Z,18.10
2023-05-21T13:45:14.657Z,18.05
2023-05-21T13:47:42.138Z,18.06
2023-05-21T13:50:09.518Z,18.07
2023-05-21T13:52:37.371Z,18.12
2023-05-21T13:55:04.493Z,18.04
2023-05-21T13:57:31.326Z,18.09
2023-05-21T13:59:59.015Z,18.01
2023-05-21T14:02:26.294Z,18.05
2023-05-21T14:04:53.892Z,17.99
2023-05-21T14:07:21.594Z,17.98
2023-05-21T14:09:48.567Z,18.08
2023-05-21T14:12:15.766Z,18.17
2023-05-21T14:14:42.517Z,18.25
2023-05-21T14:17:09.304Z,18.31
2023-05-21T14:19:36.103Z,18.55
2023-05-21T14:22:02.854Z,18.57
2023-05-21T14:24:29.698Z,18.61
2023-05-21T14:26:56.497Z,18.58
2023-05-21T14:29:23.346Z,18.67
2023-05-21T14:31:50.466Z,18.81
2023-05-21T14:34:17.749Z,18.76
2023-05-21T14:36:44.670Z,18.66
2023-05-21T14:39:11.591Z,18.67
2023-05-21T14:41:39.585Z,18.73
2023-05-21T14:44:06.267Z,18.67
2023-05-21T14:46:33.188Z,18.63
2023-05-21T14:49:00.637Z,18.62
2023-05-21T14:51:27.619Z,18.62
2023-05-21T14:53:54.389Z,18.68
2023-05-21T14:56:21.866Z,18.91
2023-05-21T14:58:48.608Z,19.08
2023-05-21T15:01:15.640Z,19.07
2023-05-21T15:03:42.443Z,19.17
2023-05-21T15:06:09.327Z,19.17
2023-05-21T15:08:36.125Z,19.07
2023-05-21T15:11:02.837Z,19.04
2023-05-21T15:13:29.601Z,18.98
2023-05-21T15:15:56.659Z,19.12
2023-05-21T15:18:24.789Z,19.14
2023-05-21T15:20:51.663Z,19.05
2023-05-21T15:23:18.755Z,19.00
2023-05-21T15:25:45.988Z,18.96
2023-05-21T15:28:13.127Z,18.87
2023-05-21T15:30:40.459Z,18.98
2023-05-21T15:33:07.214Z,19.09
2023-05-21T15:35:35.451Z,19.24
2023-05-21T15:38:02.865Z,19.24
2023-05-21T15:40:29.785Z,19.17
2023-05-21T15:42:56.545Z,19.22
2023-05-21T15:45:25.294Z,19.16
2023-05-21T15:47:52.095Z,19.07
2023-05-21T15:50:18.928Z,19.16
2023-05-21T15:52:45.678Z,19.29
2023-05-21T15:55:13.871Z,19.40
2023-05-21T15:57:40.799Z,19.46
2023-05-21T16:00:09.032Z,19.52
2023-05-21T16:02:35.984Z,19.56
2023-05-21T16:05:02.986Z,19.53
2023-05-21T16:07:29.739Z,19.56
2023-05-21T16:09:56.552Z,19.56
2023-05-21T16:12:23.237Z,19.53
2023-05-21T16:14:53.140Z,19.59
2023-05-21T16:17:20.130Z,19.54
2023-05-21T16:19:47.596Z,19.47
2023-05-21T16:22:14.832Z,19.39
2023-05-21T16:24:41.558Z,19.39
2023-05-21T16:27:08.369Z,19.25
2023-05-21T16:29:35.333Z,19.08
2023-05-21T16:32:02.379Z,18.92
2023-05-21T16:34:29.284Z,18.83
2023-05-21T16:36:56.642Z,18.74
2023-05-21T16:39:23.256Z,18.70
2023-05-21T16:41:50.147Z,18.55
2023-05-21T16:44:17.011Z,18.41
2023-05-21T16:46:43.799Z,18.38
2023-05-21T16:49:10.833Z,18.35
2023-05-21T16:51:37.636Z,18.41
2023-05-21T16:54:05.313Z,18.38
2023-05-21T16:56:32.140Z,18.36
2023-05-21T16:58:58.887Z,18.32
2023-05-21T17:01:26.140Z,18.36
2023-05-21T17:03:53.403Z,18.25
2023-05-21T17:06:20.468Z,18.19
2023-05-21T17:08:47.290Z,18.14
2023-05-21T17:11:14.156Z,18.11
2023-05-21T17:13:41.127Z,18.06
2023-05-21T17:16:08.058Z,18.01
2023-05-21T17:18:35.142Z,18.12
2023-05-21T17:21:01.930Z,18.10
2023-05-21T17:23:28.650Z,18.06
2023-05-21T17:25:55.557Z,18.05
2023-05-21T17:28:22.270Z,17.99
2023-05-21T17:30:49.753Z,17.93
2023-05-21T17:33:16.926Z,18.03
2023-05-21T17:35:44.227Z,17.97
2023-05-21T17:38:11.004Z,17.92
2023-05-21T17:40:37.774Z,17.88
2023-05-21T17:43:05.241Z,17.84
2023-05-21T17:45:32.186Z,17.71
2023-05-21T17:48:00.458Z,17.71
2023-05-21T17:50:28.173Z,17.63
2023-05-21T17:52:55.040Z,17.59
2023-05-21T17:55:21.769Z,17.61
2023-05-21T17:57:48.557Z,17.54
2023-05-21T18:00:15.485Z,17.49
2023-05-21T18:02:42.232Z,17.45
2023-05-21T18:05:09.303Z,17.42
2023-05-21T18:07:37.310Z,17.35
2023-05-21T18:10:04.399Z,17.33
2023-05-21T18:12:31.075Z,17.23
2023-05-21T18:14:58.033Z,17.28
2023-05-21T18:17:24.966Z,17.20
2023-05-21T18:19:51.745Z,17.20
2023-05-21T18:22:18.372Z,17.16
2023-05-21T18:24:46.200Z,17.13
2023-05-21T18:27:13.609Z,17.14
2023-05-21T18:29:40.490Z,17.13
2023-05-21T18:32:07.723Z,17.12
2023-05-21T18:34:34.646Z,17.10
2023-05-21T18:37:01.380Z,17.11
2023-05-21T18:39:28.222Z,17.08
2023-05-21T18:42:08.859Z,17.10
2023-05-21T18:44:39.477Z,17.01
2023-05-21T18:47:07.818Z,16.98
2023-05-21T18:49:36.060Z,16.99
2023-05-21T18:52:03.906Z,16.93
2023-05-21T18:54:30.815Z,16.88
2023-05-21T18:57:00.213Z,16.87
2023-05-21T18:59:28.393Z,16.91
2023-05-21T19:01:55.291Z,16.85
2023-05-21T19:04:22.333Z,16.82
2023-05-21T19:06:48.989Z,16.80
2023-05-21T19:09:15.912Z,16.75
2023-05-21T19:11:42.538Z,16.77
2023-05-21T19:14:09.368Z,16.83
2023-05-21T19:16:36.151Z,16.75
2023-05-21T19:19:04.177Z,16.74
2023-05-21T19:21:31.418Z,16.72
2023-05-21T19:23:58.492Z,16.77
2023-05-21T19:26:25.443Z,16.65
2023-05-21T19:28:53.274Z,16.60
2023-05-21T19:31:21.872Z,16.60
2023-05-21T19:33:49.117Z,16.56
2023-05-21T19:36:16.158Z,16.48
2023-05-21T19:38:48.198Z,16.48
2023-05-21T19:41:19.589Z,16.40
2023-05-21T19:43:46.395Z,16.43
2023-05-21T19:46:15.993Z,16.48
2023-05-21T19:48:45.121Z,16.41
2023-05-21T19:51:11.857Z,16.40
2023-05-21T19:53:38.781Z,16.42
2023-05-21T19:56:05.875Z,16.36
2023-05-21T19:58:33.153Z,16.32
2023-05-21T20:01:01.073Z,16.24
2023-05-21T20:03:28.753Z,16.32
2023-05-21T20:05:55.505Z,16.31
2023-05-21T20:08:22.775Z,16.32
2023-05-21T20:10:51.664Z,16.22
2023-05-21T20:13:19.576Z,16.25
2023-05-21T20:15:48.009Z,16.18
2023-05-21T20:18:15.646Z,16.12
2023-05-21T20:20:43.428Z,16.09
2023-05-21T20:23:10.488Z,15.99
2023-05-21T20:25:37.213Z,15.95
2023-05-21T20:28:05.327Z,15.90
2023-05-21T20:30:34.000Z,15.87
2023-05-21T20:33:04.215Z,15.88
2023-05-21T20:35:31.101Z,15.80
2023-05-21T20:37:59.542Z,15.86
2023-05-21T20:40:26.358Z,15.80
2023-05-21T20:42:54.074Z,15.83
2023-05-21T20:45:22.029Z,15.87
2023-05-21T20:47:49.931Z,15.83
2023-05-21T20:50:25.926Z,15.79
2023-05-21T20:52:52.669Z,15.78
2023-05-21T20:55:20.722Z,15.92
2023-05-21T20:57:47.640Z,15.84
2023-05-21T21:00:15.993Z,15.89
2023-05-21T21:02:42.876Z,15.82
2023-05-21T21:05:10.696Z,15.71
2023-05-21T21:07:37.769Z,15.70
2023-05-21T21:10:05.473Z,15.61
2023-05-21T21:12:32.224Z,15.56
2023-05-21T21:14:58.830Z,15.65
2023-05-21T21:17:25.608Z,15.61
2023-05-21T21:19:52.334Z,15.54
2023-05-21T21:22:19.516Z,15.52
2023-05-21T21:24:46.870Z,15.53
2023-05-21T21:27:13.761Z,15.53
2023-05-21T21:29:40.392Z,15.55
2023-05-21T21:32:07.631Z,15.62
2023-05-21T21:34:34.357Z,15.56
2023-05-21T21:37:01.178Z,15.53
2023-05-21T21:39:27.856Z,15.49
2023-05-21T21:41:54.698Z,15.46
2023-05-21T21:44:21.301Z,15.54
2023-05-21T21:46:48.104Z,15.49
2023-05-21T21:49:17.260Z,15.47
2023-05-21T21:51:48.430Z,15.50
2023-05-21T21:54:15.572Z,15.54
2023-05-21T21:56:42.476Z,15.52
2023-05-21T21:59:09.280Z,15.61
2023-05-21T22:01:36.271Z,15.53
2023-05-21T22:04:03.329Z,15.45
2023-05-21T22:06:30.064Z,15.44
2023-05-21T22:08:56.818Z,15.45
2023-05-21T22:11:23.679Z,15.46
2023-05-21T22:13:50.388Z,15.44
2023-05-21T22:16:17.051Z,15.37
2023-05-21T22:18:44.024Z,15.29
2023-05-21T22:21:14.179Z,15.25
2023-05-21T22:23:41.329Z,15.26
2023-05-21T22:26:09.040Z,15.30
2023-05-21T22:28:36.148Z,15.28
2023-05-21T22:31:03.395Z,15.25
2023-05-21T22:33:30.528Z,15.24
2023-05-21T22:35:57.296Z,15.22
2023-05-21T22:38:24.924Z,15.23
2023-05-21T22:40:51.619Z,15.34
2023-05-21T22:43:18.479Z,15.35
2023-05-21T22:45:45.196Z,15.22
2023-05-21T22:48:11.916Z,15.30
2023-05-21T22:50:39.142Z,15.26
2023-05-21T22:53:06.981Z,15.26
2023-05-21T22:55:33.801Z,15.32
2023-05-21T22:58:00.546Z,15.21
2023-05-21T23:00:28.052Z,15.11
2023-05-21T23:02:55.116Z,15.06
2023-05-21T23:05:22.503Z,15.07
2023-05-21T23:07:49.604Z,15.09
2023-05-21T23:10:16.637Z,15.08
2023-05-21T23:12:43.575Z,15.00
2023-05-21T23:15:10.809Z,15.03
2023-05-21T23:17:38.400Z,14.97
2023-05-21T23:20:07.018Z,14.99
2023-05-21T23:22:34.409Z,14.98
2023-05-21T23:25:01.522Z,14.93
2023-05-21T23:27:28.601Z,14.89
2023-05-21T23:29:55.698Z,14.82
2023-05-21T23:32:23.661Z,14.75
2023-05-21T23:34:50.808Z,14.72
2023-05-21T23:37:17.646Z,14.75
2023-05-21T23:39:48.137Z,14.69
2023-05-21T23:42:16.291Z,14.58
2023-05-21T23:44:43.021Z,14.45
2023-05-21T23:47:09.972Z,14.36
2023-05-21T23:49:36.733Z,14.39
2023-05-21T23:52:03.904Z,14.34
2023-05-21T23:54:30.946Z,14.38
2023-05-21T23:56:57.586Z,14.36
2023-05-21T23:59:24.239Z,14.43
